createdAt,value
2022-12-16T00:02:01.508Z,67.30
2022-12-16T00:04:28.180Z,66.00
2022-12-16T00:06:54.861Z,73.10
2022-12-16T00:09:21.524Z,72.80
2022-12-16T00:11:48.125Z,71.90
2022-12-16T00:14:14.783Z,71.70
2022-12-16T00:16:41.396Z,70.90
2022-12-16T00:19:07.975Z,73.30
2022-12-16T00:21:35.922Z,71.40
2022-12-16T00:24:02.601Z,75.30
2022-12-16T00:26:30.554Z,72.80
2022-12-16T00:28:57.702Z,70.40
2022-12-16T00:31:24.299Z,71.00
2022-12-16T00:33:52.277Z,70.50
2022-12-16T00:36:18.833Z,67.90
2022-12-16T00:38:45.373Z,68.80
2022-12-16T00:41:12.004Z,66.40
2022-12-16T00:43:39.445Z,67.40
2022-12-16T00:46:06.022Z,70.40
2022-12-16T00:48:32.790Z,71.40
2022-12-16T00:50:59.699Z,72.30
2022-12-16T00:53:26.302Z,72.80
2022-12-16T00:56:02.029Z,71.70
2022-12-16T00:58:28.584Z,69.70
2022-12-16T01:00:55.246Z,69.80
2022-12-16T01:03:22.375Z,71.60
2022-12-16T01:05:49.560Z,69.10
2022-12-16T01:08:16.299Z,65.80
2022-12-16T01:10:48.940Z,65.40
2022-12-16T01:13:15.730Z,64.50
2022-12-16T01:15:42.374Z,64.10
2022-12-16T01:18:08.938Z,62.20
2022-12-16T01:20:35.440Z,62.10
2022-12-16T01:23:02.019Z,61.30
2022-12-16T01:25:28.612Z,65.30
2022-12-16T01:27:55.313Z,62.10
2022-12-16T01:30:22.017Z,64.80
2022-12-16T01:32:49.011Z,62.70
2022-12-16T01:35:50.914Z,65.30
2022-12-16T01:38:03.253Z,67.20
2022-12-16T01:40:30.047Z,68.60
2022-12-16T01:42:56.624Z,64.30
2022-12-16T01:45:29.319Z,63.80
2022-12-16T01:48:00.730Z,63.70
2022-12-16T01:50:29.419Z,61.00
2022-12-16T01:52:59.326Z,63.10
2022-12-16T01:55:38.070Z,63.50
2022-12-16T01:58:20.858Z,62.30
2022-12-16T02:00:48.159Z,62.90
2022-12-16T02:03:15.612Z,63.60
2022-12-16T02:05:44.079Z,64.10
2022-12-16T02:08:18.711Z,65.90
2022-12-16T02:11:27.115Z,64.10
2022-12-16T02:14:18.317Z,65.80
2022-12-16T02:17:17.223Z,60.50
2022-12-16T02:19:56.607Z,61.40
2022-12-16T02:23:00.805Z,62.40
2022-12-16T02:26:04.797Z,62.30
2022-12-16T02:28:49.526Z,62.10
2022-12-16T02:31:27.117Z,61.50
2022-12-16T02:34:07.546Z,63.00
2022-12-16T02:36:53.132Z,62.30
2022-12-16T02:39:24.874Z,62.30
2022-12-16T02:42:09.122Z,63.40
2022-12-16T02:44:57.656Z,60.20
2022-12-16T02:47:24.511Z,61.80
2022-12-16T02:49:53.591Z,59.20
2022-12-16T02:52:38.441Z,59.20
2022-12-16T02:55:08.422Z,60.60
2022-12-16T02:57:48.957Z,57.30
2022-12-16T03:00:21.260Z,56.60
2022-12-16T03:03:01.362Z,58.50
2022-12-16T03:05:35.713Z,55.90
2022-12-16T03:08:07.101Z,60.30
2022-12-16T03:10:44.720Z,56.60
2022-12-16T03:13:13.654Z,58.50
2022-12-16T03:15:42.655Z,57.30
2022-12-16T03:18:13.179Z,58.40
2022-12-16T03:20:56.570Z,57.50
2022-12-16T03:23:40.339Z,57.60
2022-12-16T03:29:02.274Z,54.90
2022-12-16T03:31:50.763Z,54.80
2022-12-16T03:34:38.559Z,56.20
2022-12-16T03:37:08.837Z,54.90
2022-12-16T03:39:41.768Z,57.30
2022-12-16T03:42:09.667Z,57.10
2022-12-16T03:44:36.598Z,58.30
2022-12-16T03:47:03.258Z,59.20
2022-12-16T03:49:29.789Z,61.50
2022-12-16T03:51:56.350Z,59.70
2022-12-16T03:54:23.756Z,59.70
2022-12-16T03:56:50.715Z,62.50
2022-12-16T03:59:17.528Z,61.20
2022-12-16T04:01:44.345Z,60.10
2022-12-16T04:04:11.457Z,62.30
2022-12-16T04:06:38.164Z,60.50
2022-12-16T04:09:04.865Z,57.90
2022-12-16T04:11:50.007Z,56.20
2022-12-16T04:14:35.434Z,54.00
2022-12-16T04:17:20.848Z,57.50
2022-12-16T04:20:06.402Z,52.50
2022-12-16T04:22:55.337Z,58.60
2022-12-16T04:25:29.335Z,55.80
2022-12-16T04:27:57.942Z,54.50
2022-12-16T04:30:27.022Z,56.70
2022-12-16T04:33:17.157Z,58.50
2022-12-16T04:36:02.653Z,54.20
2022-12-16T04:38:48.064Z,54.70
2022-12-16T04:41:33.670Z,53.40
2022-12-16T04:44:19.133Z,52.40
2022-12-16T04:47:04.663Z,51.00
2022-12-16T04:49:50.332Z,51.60
2022-12-16T04:52:36.761Z,49.10
2022-12-16T04:55:23.178Z,49.50
2022-12-16T04:58:13.374Z,49.50
2022-12-16T05:00:59.252Z,49.20
2022-12-16T05:03:45.291Z,49.60
2022-12-16T05:06:31.445Z,49.10
2022-12-16T05:09:16.898Z,49.80
2022-12-16T05:12:02.813Z,47.40
2022-12-16T05:14:48.230Z,49.70
2022-12-16T05:17:34.187Z,49.40
2022-12-16T05:20:19.675Z,46.10
2022-12-16T05:23:05.097Z,47.00
2022-12-16T05:25:50.352Z,49.60
2022-12-16T05:28:36.991Z,48.60
2022-12-16T05:31:22.413Z,44.60
2022-12-16T05:34:08.005Z,49.70
2022-12-16T05:36:53.475Z,47.60
2022-12-16T05:39:38.495Z,48.10
2022-12-16T05:42:24.068Z,47.90
2022-12-16T05:45:09.166Z,46.90
2022-12-16T05:47:54.868Z,45.00
2022-12-16T05:50:39.777Z,52.50
2022-12-16T05:53:27.853Z,50.70
2022-12-16T05:56:13.435Z,44.90
2022-12-16T05:58:58.306Z,43.60
2022-12-16T06:01:43.512Z,42.50
2022-12-16T06:04:28.704Z,40.00
2022-12-16T06:07:13.694Z,39.50
2022-12-16T06:09:58.796Z,39.30
2022-12-16T06:12:43.778Z,39.50
2022-12-16T06:15:29.084Z,40.80
2022-12-16T06:18:14.053Z,40.20
2022-12-16T06:20:59.559Z,39.60
2022-12-16T06:23:44.383Z,44.10
2022-12-16T06:26:29.972Z,46.10
2022-12-16T06:29:15.582Z,48.30
2022-12-16T06:32:00.628Z,47.60
2022-12-16T06:34:45.723Z,53.20
2022-12-16T06:37:30.713Z,56.60
2022-12-16T06:40:15.844Z,58.70
2022-12-16T06:43:00.885Z,54.80
2022-12-16T06:45:46.588Z,61.90
2022-12-16T06:48:32.261Z,62.40
2022-12-16T06:51:17.296Z,58.50
2022-12-16T06:54:02.432Z,55.80
2022-12-16T06:56:47.433Z,56.60
2022-12-16T06:59:32.522Z,57.90
2022-12-16T07:02:17.368Z,55.40
2022-12-16T07:05:02.692Z,54.80
2022-12-16T07:07:47.783Z,55.80
2022-12-16T07:10:33.091Z,56.60
2022-12-16T07:13:18.651Z,54.70
2022-12-16T07:16:04.684Z,56.40
2022-12-16T07:19:00.599Z,55.00
2022-12-16T07:21:45.677Z,52.80
2022-12-16T07:24:30.636Z,53.80
2022-12-16T07:27:15.578Z,50.90
2022-12-16T07:30:00.708Z,48.30
2022-12-16T07:32:45.770Z,45.30
2022-12-16T07:35:30.926Z,40.00
2022-12-16T07:38:15.799Z,38.30
2022-12-16T07:41:00.736Z,37.50
2022-12-16T07:43:46.324Z,37.80
2022-12-16T07:46:31.881Z,39.00
2022-12-16T07:49:17.344Z,41.60
2022-12-16T07:52:06.666Z,37.30
2022-12-16T07:54:51.786Z,35.60
2022-12-16T07:57:38.154Z,35.90
2022-12-16T08:00:24.136Z,37.30
2022-12-16T08:03:12.838Z,36.00
2022-12-16T08:05:58.456Z,36.60
2022-12-16T08:08:43.989Z,37.60
2022-12-16T08:11:28.852Z,37.70
2022-12-16T08:14:14.389Z,35.30
2022-12-16T08:16:59.787Z,35.70
2022-12-16T08:19:45.135Z,36.90
2022-12-16T08:22:43.843Z,38.40
2022-12-16T08:25:28.825Z,40.70
2022-12-16T08:28:14.603Z,41.70
2022-12-16T08:31:00.488Z,41.40
2022-12-16T08:33:45.545Z,42.90
2022-12-16T08:36:30.374Z,46.00
2022-12-16T08:39:15.542Z,47.30
2022-12-16T08:42:00.810Z,49.90
2022-12-16T08:44:45.942Z,48.70
2022-12-16T08:47:31.054Z,47.70
2022-12-16T08:50:16.160Z,47.00
2022-12-16T08:53:01.284Z,49.80
2022-12-16T08:55:46.252Z,49.30
2022-12-16T08:58:31.709Z,47.10
2022-12-16T09:01:17.261Z,45.90
2022-12-16T09:04:02.764Z,46.90
2022-12-16T09:06:48.412Z,48.10
2022-12-16T09:09:33.789Z,46.70
2022-12-16T09:12:18.842Z,46.40
2022-12-16T09:15:11.297Z,45.60
2022-12-16T09:17:56.753Z,46.90
2022-12-16T09:20:42.280Z,46.40
2022-12-16T09:23:28.016Z,47.50
2022-12-16T09:26:13.087Z,50.10
2022-12-16T09:28:58.519Z,48.00
2022-12-16T09:31:44.026Z,46.30
2022-12-16T09:34:29.088Z,66.10
2022-12-16T09:37:14.546Z,59.90
2022-12-16T09:39:59.685Z,58.70
2022-12-16T09:43:00.245Z,57.10
2022-12-16T09:45:51.525Z,48.70
2022-12-16T09:49:06.865Z,49.90
2022-12-16T09:51:55.275Z,48.50
2022-12-16T09:54:45.028Z,46.00
2022-12-16T09:57:32.444Z,47.90
2022-12-16T10:00:22.339Z,48.80
2022-12-16T10:03:09.172Z,43.90
2022-12-16T10:06:10.674Z,43.50
2022-12-16T10:09:23.393Z,47.10
2022-12-16T10:13:08.189Z,46.50
2022-12-16T10:16:05.388Z,45.50
2022-12-16T10:19:13.627Z,43.20
2022-12-16T10:22:13.772Z,42.80
2022-12-16T10:25:23.240Z,43.80
2022-12-16T10:28:15.845Z,45.60
2022-12-16T10:31:01.500Z,44.30
2022-12-16T10:33:47.987Z,46.50
2022-12-16T10:36:39.853Z,44.80
2022-12-16T10:39:47.197Z,46.20
2022-12-16T10:42:54.972Z,44.90
2022-12-16T10:45:48.654Z,44.60
2022-12-16T10:48:45.686Z,45.20
2022-12-16T10:51:39.449Z,45.60
2022-12-16T10:54:39.800Z,44.40
2022-12-16T10:57:53.068Z,42.50
2022-12-16T11:00:56.111Z,45.00
2022-12-16T11:03:59.771Z,44.30
2022-12-16T11:06:54.337Z,43.60
2022-12-16T11:09:47.568Z,43.10
2022-12-16T11:12:32.606Z,43.20
2022-12-16T11:15:29.007Z,45.80
2022-12-16T11:18:24.821Z,41.80
2022-12-16T11:21:31.173Z,46.80
2022-12-16T11:24:25.686Z,45.20
2022-12-16T11:27:15.669Z,46.50
2022-12-16T11:30:15.240Z,44.50
2022-12-16T11:33:06.148Z,47.00
2022-12-16T11:35:55.004Z,46.10
2022-12-16T11:38:41.484Z,48.00
2022-12-16T11:41:37.608Z,46.20
2022-12-16T11:44:23.790Z,45.40
2022-12-16T11:47:09.185Z,46.40
2022-12-16T11:49:54.293Z,46.60
2022-12-16T11:52:41.270Z,49.20
2022-12-16T11:56:04.954Z,52.00
2022-12-16T11:58:55.424Z,48.60
2022-12-16T12:01:50.911Z,50.30
2022-12-16T12:04:36.771Z,50.20
2022-12-16T12:07:27.704Z,50.20
2022-12-16T12:10:24.975Z,49.90
2022-12-16T12:13:23.473Z,51.00
2022-12-16T12:16:25.642Z,53.10
2022-12-16T12:19:43.884Z,51.90
2022-12-16T12:22:55.848Z,52.60
2022-12-16T12:26:02.550Z,52.50
2022-12-16T12:29:08.279Z,53.00
2022-12-16T12:32:00.754Z,51.80
2022-12-16T12:34:51.756Z,51.10
2022-12-16T12:37:40.941Z,53.20
2022-12-16T12:40:44.078Z,52.50
2022-12-16T12:43:44.974Z,55.20
2022-12-16T12:46:39.301Z,56.30
2022-12-16T12:52:39.096Z,56.80
2022-12-16T12:55:43.729Z,55.30
2022-12-16T12:58:32.696Z,57.60
2022-12-16T13:01:20.210Z,56.10
2022-12-16T13:04:24.754Z,60.40
2022-12-16T13:09:57.316Z,61.60
2022-12-16T13:12:48.920Z,61.30
2022-12-16T13:15:58.794Z,65.10
2022-12-16T13:18:48.397Z,55.70
2022-12-16T13:23:47.003Z,59.40
2022-12-16T13:26:36.406Z,62.90
2022-12-16T13:29:48.940Z,56.10
2022-12-16T13:32:40.527Z,57.60
2022-12-16T13:35:26.976Z,57.50
2022-12-16T13:38:19.566Z,59.20
2022-12-16T13:41:14.624Z,62.00
2022-12-16T13:44:11.335Z,62.80
2022-12-16T13:47:06.899Z,62.30
2022-12-16T13:50:03.147Z,62.40
2022-12-16T13:52:58.885Z,62.10
2022-12-16T13:56:04.804Z,64.30
2022-12-16T13:59:10.365Z,63.00
2022-12-16T14:02:10.699Z,62.50
2022-12-16T14:05:06.803Z,58.50
2022-12-16T14:08:13.775Z,60.20
2022-12-16T14:11:01.664Z,64.00
2022-12-16T14:14:05.001Z,62.90
2022-12-16T14:16:57.721Z,59.90
2022-12-16T14:19:58.260Z,61.50
2022-12-16T14:23:17.971Z,61.50
2022-12-16T14:26:17.511Z,64.70
2022-12-16T14:29:06.663Z,68.10
2022-12-16T14:31:58.554Z,69.40
2022-12-16T14:34:51.249Z,64.00
2022-12-16T14:37:56.410Z,66.10
2022-12-16T14:40:51.083Z,69.10
2022-12-16T14:43:43.732Z,68.20
2022-12-16T14:46:50.890Z,67.70
2022-12-16T14:49:43.762Z,65.60
2022-12-16T14:52:42.746Z,63.10
2022-12-16T14:55:45.417Z,63.30
2022-12-16T14:58:33.757Z,59.80
2022-12-16T15:01:39.595Z,56.40
2022-12-16T15:04:36.998Z,59.70
2022-12-16T15:07:31.690Z,62.90
2022-12-16T15:10:19.426Z,61.00
2022-12-16T15:13:08.206Z,62.30
2022-12-16T15:16:07.363Z,59.90
2022-12-16T15:19:05.193Z,64.20
2022-12-16T15:21:53.483Z,63.80
2022-12-16T15:24:43.585Z,64.10
2022-12-16T15:27:42.346Z,61.60
2022-12-16T15:30:51.240Z,62.90
2022-12-16T15:33:40.950Z,64.50
2022-12-16T15:36:46.763Z,63.00
2022-12-16T15:39:48.465Z,63.80
2022-12-16T15:42:51.644Z,65.80
2022-12-16T15:45:49.893Z,61.90
2022-12-16T15:48:38.353Z,61.70
2022-12-16T15:51:45.423Z,65.30
2022-12-16T15:54:37.632Z,61.00
2022-12-16T15:57:46.761Z,56.10
2022-12-16T16:00:40.356Z,57.60
2022-12-16T16:03:42.113Z,57.70
2022-12-16T16:06:47.306Z,61.00
2022-12-16T16:09:46.565Z,59.10
2022-12-16T16:12:35.650Z,60.40
2022-12-16T16:15:24.099Z,60.50
2022-12-16T16:18:19.978Z,56.80
2022-12-16T16:21:07.180Z,59.30
2022-12-16T16:23:54.062Z,58.30
2022-12-16T16:26:45.628Z,63.00
2022-12-16T16:29:32.593Z,64.10
2022-12-16T16:32:20.511Z,60.10
2022-12-16T16:35:07.142Z,65.30
2022-12-16T16:37:53.359Z,61.80
2022-12-16T16:40:54.182Z,63.10
2022-12-16T16:43:41.863Z,62.70
2022-12-16T16:46:50.810Z,63.50
2022-12-16T16:49:41.712Z,62.60
2022-12-16T16:52:34.568Z,61.30
2022-12-16T16:55:22.130Z,61.10
2022-12-16T16:58:09.286Z,61.30
2022-12-16T17:00:55.773Z,59.90
2022-12-16T17:03:42.882Z,60.70
2022-12-16T17:06:30.014Z,58.40
2022-12-16T17:09:16.855Z,57.80
2022-12-16T17:12:03.303Z,58.30
2022-12-16T17:14:49.784Z,62.00
2022-12-16T17:17:36.449Z,64.00
2022-12-16T17:20:23.693Z,65.50
2022-12-16T17:23:10.160Z,65.50
2022-12-16T17:25:56.525Z,67.80
2022-12-16T17:28:43.213Z,67.20
2022-12-16T17:31:30.110Z,70.80
2022-12-16T17:34:17.378Z,70.40
2022-12-16T17:37:04.053Z,69.90
2022-12-16T17:39:51.017Z,66.20
2022-12-16T17:42:39.503Z,66.80
2022-12-16T17:45:29.682Z,68.20
2022-12-16T17:48:16.304Z,69.60
2022-12-16T17:51:02.746Z,67.70
2022-12-16T17:53:52.512Z,67.30
2022-12-16T17:56:42.105Z,71.60
2022-12-16T17:59:29.214Z,66.30
2022-12-16T18:02:16.025Z,66.50
2022-12-16T18:05:02.934Z,69.80
2022-12-16T18:07:52.301Z,68.60
2022-12-16T18:10:39.025Z,67.20
2022-12-16T18:13:25.756Z,69.30
2022-12-16T18:16:12.998Z,69.50
2022-12-16T18:19:10.289Z,66.80
2022-12-16T18:21:58.201Z,70.10
2022-12-16T18:24:48.383Z,63.90
2022-12-16T18:27:35.855Z,65.00
2022-12-16T18:30:23.154Z,62.00
2022-12-16T18:33:09.902Z,60.30
2022-12-16T18:35:56.358Z,62.30
2022-12-16T18:38:42.981Z,60.70
2022-12-16T18:41:35.760Z,60.60
2022-12-16T18:44:24.325Z,60.30
2022-12-16T18:47:11.368Z,57.60
2022-12-16T18:49:57.746Z,62.60
2022-12-16T18:52:44.630Z,61.30
2022-12-16T18:55:31.790Z,61.20
2022-12-16T18:58:49.232Z,62.30
2022-12-16T19:01:28.660Z,63.90
2022-12-16T19:04:15.969Z,62.20
2022-12-16T19:07:02.597Z,64.90
2022-12-16T19:09:49.307Z,65.30
2022-12-16T19:12:35.754Z,66.30
2022-12-16T19:15:22.228Z,71.40
2022-12-16T19:18:08.650Z,67.60
2022-12-16T19:20:56.765Z,66.50
2022-12-16T19:23:43.390Z,68.30
2022-12-16T19:26:29.914Z,64.50
2022-12-16T19:29:16.553Z,65.60
2022-12-16T19:32:03.182Z,62.60
2022-12-16T19:34:51.474Z,65.60
2022-12-16T19:37:38.713Z,61.40
2022-12-16T19:40:40.513Z,66.40
2022-12-16T19:43:26.873Z,64.30
2022-12-16T19:46:14.550Z,67.40
2022-12-16T19:49:01.224Z,67.20
2022-12-16T19:51:48.408Z,67.10
2022-12-16T19:54:35.055Z,68.40
2022-12-16T19:57:22.386Z,66.70
2022-12-16T20:00:09.032Z,69.80
2022-12-16T20:03:01.025Z,69.50
2022-12-16T20:05:48.878Z,67.00
2022-12-16T20:08:35.343Z,67.50
2022-12-16T20:11:36.236Z,60.80
2022-12-16T20:14:23.260Z,64.70
2022-12-16T20:17:10.292Z,65.60
2022-12-16T20:19:56.740Z,65.00
2022-12-16T20:22:53.797Z,68.90
2022-12-16T20:25:43.238Z,67.50
2022-12-16T20:28:31.784Z,56.00
2022-12-16T20:31:24.338Z,65.70
2022-12-16T20:34:14.460Z,64.40
2022-12-16T20:37:01.683Z,59.10
2022-12-16T20:39:56.375Z,66.50
2022-12-16T20:42:45.028Z,66.60
2022-12-16T20:45:31.913Z,65.10
2022-12-16T20:48:19.314Z,69.60
2022-12-16T20:51:22.624Z,66.70
2022-12-16T20:54:13.875Z,73.00
2022-12-16T20:57:00.471Z,66.10
2022-12-16T20:59:47.160Z,67.30
2022-12-16T21:02:34.475Z,69.20
2022-12-16T21:05:22.246Z,65.80
2022-12-16T21:08:08.604Z,64.80
2022-12-16T21:10:56.438Z,66.80
2022-12-16T21:13:43.714Z,62.20
2022-12-16T21:16:30.585Z,64.90
2022-12-16T21:19:17.446Z,65.10
2022-12-16T21:22:04.145Z,64.10
2022-12-16T21:24:50.447Z,61.70
2022-12-16T21:27:37.124Z,62.70
2022-12-16T21:30:24.332Z,65.10
2022-12-16T21:33:12.133Z,66.80
2022-12-16T21:35:58.566Z,63.50
2022-12-16T21:38:45.339Z,61.80
2022-12-16T21:41:31.629Z,63.20
2022-12-16T21:44:18.081Z,62.50
2022-12-16T21:47:04.503Z,65.00
2022-12-16T21:49:51.717Z,67.40
2022-12-16T21:52:38.506Z,67.20
2022-12-16T21:55:25.691Z,66.20
2022-12-16T21:58:14.321Z,65.30
2022-12-16T22:01:00.976Z,72.80
2022-12-16T22:03:54.569Z,66.20
2022-12-16T22:06:48.467Z,62.50
2022-12-16T22:09:35.970Z,61.90
2022-12-16T22:12:22.691Z,61.70
2022-12-16T22:15:09.311Z,63.20
2022-12-16T22:17:58.635Z,60.40
2022-12-16T22:20:45.494Z,62.90
2022-12-16T22:23:31.972Z,63.60
2022-12-16T22:26:19.650Z,63.80
2022-12-16T22:29:06.487Z,64.80
2022-12-16T22:31:52.646Z,62.20
2022-12-16T22:34:39.397Z,62.80
2022-12-16T22:37:25.887Z,65.80
2022-12-16T22:40:12.252Z,56.60
2022-12-16T22:42:58.679Z,63.10
2022-12-16T22:45:44.901Z,59.80
2022-12-16T22:48:31.777Z,56.80
2022-12-16T22:51:18.012Z,59.40
2022-12-16T22:54:08.374Z,60.30
2022-12-16T22:56:57.276Z,62.50
2022-12-16T22:59:44.046Z,60.80
2022-12-16T23:02:30.537Z,60.80
2022-12-16T23:05:18.389Z,62.50
2022-12-16T23:08:06.960Z,61.60
2022-12-16T23:10:53.413Z,61.00
2022-12-16T23:13:44.484Z,60.70
2022-12-16T23:16:31.897Z,61.50
2022-12-16T23:19:18.859Z,60.00
2022-12-16T23:22:07.509Z,62.20
2022-12-16T23:24:54.106Z,61.50
2022-12-16T23:27:40.644Z,58.70
2022-12-16T23:30:27.881Z,62.30
2022-12-16T23:33:19.252Z,60.80
2022-12-16T23:36:06.080Z,60.00
2022-12-16T23:38:53.411Z,61.50
2022-12-16T23:41:39.627Z,59.90
2022-12-16T23:44:25.838Z,61.30
2022-12-16T23:47:12.827Z,59.30
2022-12-16T23:49:59.162Z,60.90
2022-12-16T23:52:45.940Z,60.30
2022-12-16T23:55:32.788Z,59.10
2022-12-16T23:58:21.218Z,58.50
